sensor_id;sensor_type;location;lat;lon;timestamp;pressure;altitude;pressure_sealevel;temperature;humidity
25350;BME280;13302;48.796;11.978;2023-02-17T00:00:54;97667.72;;;5.78;38.27
25350;BME280;13302;48.796;11.978;2023-02-17T00:03:41;97663.25;;;5.82;38.29
25350;BME280;13302;48.796;11.978;2023-02-17T00:06:29;97672.84;;;5.85;38.33
25350;BME280;13302;48.796;11.978;2023-02-17T00:09:18;97667.34;;;5.85;38.20
25350;BME280;13302;48.796;11.978;2023-02-17T00:12:05;97677.19;;;5.86;38.19
25350;BME280;13302;48.796;11.978;2023-02-17T00:14:52;97675.56;;;5.85;38.24
25350;BME280;13302;48.796;11.978;2023-02-17T00:17:39;97675.56;;;5.85;37.91
25350;BME280;13302;48.796;11.978;2023-02-17T00:20:27;97673.94;;;5.84;37.91
25350;BME280;13302;48.796;11.978;2023-02-17T00:23:14;97667.63;;;5.83;37.98
25350;BME280;13302;48.796;11.978;2023-02-17T00:26:04;97666.59;;;5.79;37.94
25350;BME280;13302;48.796;11.978;2023-02-17T00:28:52;97672.91;;;5.80;37.63
25350;BME280;13302;48.796;11.978;2023-02-17T00:31:39;97668.84;;;5.77;37.55
25350;BME280;13302;48.796;11.978;2023-02-17T00:34:26;97663.94;;;5.74;37.47
25350;BME280;13302;48.796;11.978;2023-02-17T00:37:14;97660.69;;;5.72;37.56
25350;BME280;13302;48.796;11.978;2023-02-17T00:40:01;97669.22;;;5.71;37.49
25350;BME280;13302;48.796;11.978;2023-02-17T00:42:48;97665.16;;;5.68;37.49
25350;BME280;13302;48.796;11.978;2023-02-17T00:45:35;97672.03;;;5.66;37.17
25350;BME280;13302;48.796;11.978;2023-02-17T00:48:22;97677.84;;;5.64;37.13
25350;BME280;13302;48.796;11.978;2023-02-17T00:51:10;97676.50;;;5.62;37.21
25350;BME280;13302;48.796;11.978;2023-02-17T00:53:57;97672.44;;;5.59;37.39
25350;BME280;13302;48.796;11.978;2023-02-17T00:56:45;97664.81;;;5.56;37.33
25350;BME280;13302;48.796;11.978;2023-02-17T00:59:32;97675.56;;;5.52;37.38
25350;BME280;13302;48.796;11.978;2023-02-17T01:02:19;97669.53;;;5.50;37.33
25350;BME280;13302;48.796;11.978;2023-02-17T01:05:06;97676.47;;;5.48;37.55
25350;BME280;13302;48.796;11.978;2023-02-17T01:07:54;97670.44;;;5.46;37.59
25350;BME280;13302;48.796;11.978;2023-02-17T01:10:44;97675.41;;;5.44;37.32
25350;BME280;13302;48.796;11.978;2023-02-17T01:13:31;97673.50;;;5.44;37.40
25350;BME280;13302;48.796;11.978;2023-02-17T01:16:24;97668.31;;;5.43;37.44
25350;BME280;13302;48.796;11.978;2023-02-17T01:19:14;97674.88;;;5.42;37.40
25350;BME280;13302;48.796;11.978;2023-02-17T01:22:01;97671.31;;;5.41;37.42
25350;BME280;13302;48.796;11.978;2023-02-17T01:24:48;97673.25;;;5.41;37.50
25350;BME280;13302;48.796;11.978;2023-02-17T01:27:35;97672.75;;;5.39;37.42
25350;BME280;13302;48.796;11.978;2023-02-17T01:30:22;97668.09;;;5.39;37.44
25350;BME280;13302;48.796;11.978;2023-02-17T01:33:09;97658.22;;;5.38;37.42
25350;BME280;13302;48.796;11.978;2023-02-17T01:36:04;97662.88;;;5.38;37.39
25350;BME280;13302;48.796;11.978;2023-02-17T01:38:51;97651.91;;;5.38;37.58
25350;BME280;13302;48.796;11.978;2023-02-17T01:41:38;97655.47;;;5.38;37.72
25350;BME280;13302;48.796;11.978;2023-02-17T01:44:25;97648.34;;;5.37;37.73
25350;BME280;13302;48.796;11.978;2023-02-17T01:47:12;97647.53;;;5.37;37.68
25350;BME280;13302;48.796;11.978;2023-02-17T01:49:59;97643.69;;;5.38;37.54
25350;BME280;13302;48.796;11.978;2023-02-17T01:52:47;97647.53;;;5.37;37.71
25350;BME280;13302;48.796;11.978;2023-02-17T01:55:36;97644.00;;;5.36;37.59
25350;BME280;13302;48.796;11.978;2023-02-17T01:58:25;97636.56;;;5.37;37.75
25350;BME280;13302;48.796;11.978;2023-02-17T02:01:13;97635.47;;;5.38;37.54
25350;BME280;13302;48.796;11.978;2023-02-17T02:04:02;97633.53;;;5.38;37.63
25350;BME280;13302;48.796;11.978;2023-02-17T02:06:50;97633.53;;;5.38;37.54
25350;BME280;13302;48.796;11.978;2023-02-17T02:09:43;97625.59;;;5.37;37.72
25350;BME280;13302;48.796;11.978;2023-02-17T02:12:35;97624.81;;;5.36;37.72
25350;BME280;13302;48.796;11.978;2023-02-17T02:15:27;97622.88;;;5.37;37.89
25350;BME280;13302;48.796;11.978;2023-02-17T02:22:00;97615.47;;;5.37;37.85
25350;BME280;13302;48.796;11.978;2023-02-17T02:31:22;97588.03;;;5.37;37.94
25350;BME280;13302;48.796;11.978;2023-02-17T02:34:20;97591.59;;;5.38;38.15
25350;BME280;13302;48.796;11.978;2023-02-17T02:37:14;97581.44;;;5.38;38.06
25350;BME280;13302;48.796;11.978;2023-02-17T02:40:06;97574.03;;;5.39;38.13
25350;BME280;13302;48.796;11.978;2023-02-17T02:42:55;97568.78;;;5.42;38.11
25350;BME280;13302;48.796;11.978;2023-02-17T02:45:43;97561.06;;;5.44;38.19
25350;BME280;13302;48.796;11.978;2023-02-17T02:48:30;97561.84;;;5.45;38.27
25350;BME280;13302;48.796;11.978;2023-02-17T02:51:32;97560.75;;;5.46;38.31
25350;BME280;13302;48.796;11.978;2023-02-17T02:57:54;97554.97;;;5.47;38.32
25350;BME280;13302;48.796;11.978;2023-02-17T03:00:56;97556.00;;;5.51;38.56
25350;BME280;13302;48.796;11.978;2023-02-17T03:04:06;97548.28;;;5.53;38.57
25350;BME280;13302;48.796;11.978;2023-02-17T03:07:02;97544.94;;;5.57;38.75
25350;BME280;13302;48.796;11.978;2023-02-17T03:09:53;97532.25;;;5.61;38.73
25350;BME280;13302;48.796;11.978;2023-02-17T03:12:42;97533.28;;;5.65;38.77
25350;BME280;13302;48.796;11.978;2023-02-17T03:15:33;97541.72;;;5.68;38.81
25350;BME280;13302;48.796;11.978;2023-02-17T03:18:20;97531.44;;;5.74;38.81
25350;BME280;13302;48.796;11.978;2023-02-17T03:21:13;97536.03;;;5.78;38.86
25350;BME280;13302;48.796;11.978;2023-02-17T03:24:02;97535.31;;;5.86;38.74
25350;BME280;13302;48.796;11.978;2023-02-17T03:26:49;97525.06;;;5.92;38.78
25350;BME280;13302;48.796;11.978;2023-02-17T03:29:36;97532.38;;;5.96;38.83
25350;BME280;13302;48.796;11.978;2023-02-17T03:32:24;97537.16;;;6.05;38.67
25350;BME280;13302;48.796;11.978;2023-02-17T03:35:11;97540.66;;;6.10;38.80
25350;BME280;13302;48.796;11.978;2023-02-17T03:37:58;97535.25;;;6.19;38.75
25350;BME280;13302;48.796;11.978;2023-02-17T03:40:45;97534.03;;;6.25;38.62
25350;BME280;13302;48.796;11.978;2023-02-17T03:43:32;97541.84;;;6.31;38.51
25350;BME280;13302;48.796;11.978;2023-02-17T03:46:19;97540.63;;;6.37;38.58
25350;BME280;13302;48.796;11.978;2023-02-17T03:49:07;97530.34;;;6.43;38.65
25350;BME280;13302;48.796;11.978;2023-02-17T03:51:54;97531.84;;;6.49;38.41
25350;BME280;13302;48.796;11.978;2023-02-17T03:54:41;97531.75;;;6.54;38.32
25350;BME280;13302;48.796;11.978;2023-02-17T03:57:28;97531.94;;;6.58;38.48
25350;BME280;13302;48.796;11.978;2023-02-17T04:00:17;97531.84;;;6.63;38.27
25350;BME280;13302;48.796;11.978;2023-02-17T04:03:05;97534.78;;;6.66;38.31
25350;BME280;13302;48.796;11.978;2023-02-17T04:05:52;97537.72;;;6.70;38.23
25350;BME280;13302;48.796;11.978;2023-02-17T04:08:40;97535.47;;;6.72;38.20
25350;BME280;13302;48.796;11.978;2023-02-17T04:11:27;97535.66;;;6.75;37.90
25350;BME280;13302;48.796;11.978;2023-02-17T04:14:14;97533.13;;;6.79;38.17
25350;BME280;13302;48.796;11.978;2023-02-17T04:17:01;97530.56;;;6.82;38.03
25350;BME280;13302;48.796;11.978;2023-02-17T04:19:48;97529.91;;;6.85;37.99
25350;BME280;13302;48.796;11.978;2023-02-17T04:22:35;97532.38;;;6.87;37.88
25350;BME280;13302;48.796;11.978;2023-02-17T04:25:22;97528.19;;;6.89;37.76
25350;BME280;13302;48.796;11.978;2023-02-17T04:28:10;97527.38;;;6.89;37.67
25350;BME280;13302;48.796;11.978;2023-02-17T04:30:58;97519.13;;;6.89;37.51
25350;BME280;13302;48.796;11.978;2023-02-17T04:33:45;97524.63;;;6.89;37.59
25350;BME280;13302;48.796;11.978;2023-02-17T04:36:32;97525.44;;;6.89;37.25
25350;BME280;13302;48.796;11.978;2023-02-17T04:39:19;97523.78;;;6.88;37.31
25350;BME280;13302;48.796;11.978;2023-02-17T04:42:06;97517.81;;;6.86;37.25
25350;BME280;13302;48.796;11.978;2023-02-17T04:44:53;97522.78;;;6.84;37.39
25350;BME280;13302;48.796;11.978;2023-02-17T04:47:40;97524.25;;;6.82;37.47
25350;BME280;13302;48.796;11.978;2023-02-17T04:50:27;97524.88;;;6.79;37.24
25350;BME280;13302;48.796;11.978;2023-02-17T04:53:15;97526.81;;;6.78;37.47
25350;BME280;13302;48.796;11.978;2023-02-17T04:56:02;97521.59;;;6.77;37.50
25350;BME280;13302;48.796;11.978;2023-02-17T04:58:49;97523.88;;;6.75;37.40
25350;BME280;13302;48.796;11.978;2023-02-17T05:01:36;97517.84;;;6.73;37.43
25350;BME280;13302;48.796;11.978;2023-02-17T05:04:23;97525.28;;;6.72;37.58
25350;BME280;13302;48.796;11.978;2023-02-17T05:07:11;97517.38;;;6.71;37.58
25350;BME280;13302;48.796;11.978;2023-02-17T05:09:58;97525.59;;;6.71;37.52
25350;BME280;13302;48.796;11.978;2023-02-17T05:12:45;97521.22;;;6.70;37.93
25350;BME280;13302;48.796;11.978;2023-02-17T05:15:32;97516.25;;;6.72;37.81
25350;BME280;13302;48.796;11.978;2023-02-17T05:18:20;97520.94;;;6.71;37.80
25350;BME280;13302;48.796;11.978;2023-02-17T05:21:07;97527.72;;;6.74;37.75
25350;BME280;13302;48.796;11.978;2023-02-17T05:23:54;97523.88;;;6.75;37.78
25350;BME280;13302;48.796;11.978;2023-02-17T05:26:42;97520.78;;;6.76;37.92
25350;BME280;13302;48.796;11.978;2023-02-17T05:29:29;97518.84;;;6.77;37.69
25350;BME280;13302;48.796;11.978;2023-02-17T05:32:16;97523.22;;;6.78;37.69
25350;BME280;13302;48.796;11.978;2023-02-17T05:35:04;97515.50;;;6.80;37.89
25350;BME280;13302;48.796;11.978;2023-02-17T05:37:51;97508.38;;;6.79;37.75
25350;BME280;13302;48.796;11.978;2023-02-17T05:40:38;97508.69;;;6.77;37.55
25350;BME280;13302;48.796;11.978;2023-02-17T05:43:25;97507.88;;;6.77;37.82
25350;BME280;13302;48.796;11.978;2023-02-17T05:46:12;97509.00;;;6.76;37.76
25350;BME280;13302;48.796;11.978;2023-02-17T05:48:59;97512.53;;;6.76;37.75
25350;BME280;13302;48.796;11.978;2023-02-17T05:51:46;97510.94;;;6.75;37.90
25350;BME280;13302;48.796;11.978;2023-02-17T05:54:34;97508.19;;;6.75;37.60
25350;BME280;13302;48.796;11.978;2023-02-17T05:57:21;97506.56;;;6.74;37.72
25350;BME280;13302;48.796;11.978;2023-02-17T06:00:08;97507.38;;;6.75;37.88
25350;BME280;13302;48.796;11.978;2023-02-17T06:02:58;97507.38;;;6.75;37.93
25350;BME280;13302;48.796;11.978;2023-02-17T06:05:45;97512.06;;;6.74;38.05
25350;BME280;13302;48.796;11.978;2023-02-17T06:08:33;97512.88;;;6.75;37.91
25350;BME280;13302;48.796;11.978;2023-02-17T06:11:20;97510.41;;;6.73;38.04
25350;BME280;13302;48.796;11.978;2023-02-17T06:14:07;97524.97;;;6.74;37.93
25350;BME280;13302;48.796;11.978;2023-02-17T06:16:54;97517.84;;;6.73;38.20
25350;BME280;13302;48.796;11.978;2023-02-17T06:19:42;97520.09;;;6.71;38.26
25350;BME280;13302;48.796;11.978;2023-02-17T06:22:29;97520.09;;;6.71;37.96
25350;BME280;13302;48.796;11.978;2023-02-17T06:25:16;97511.88;;;6.71;38.27
25350;BME280;13302;48.796;11.978;2023-02-17T06:28:03;97516.25;;;6.72;38.12
25350;BME280;13302;48.796;11.978;2023-02-17T06:30:50;97516.44;;;6.75;38.18
25350;BME280;13302;48.796;11.978;2023-02-17T06:33:40;97507.03;;;6.76;38.17
25350;BME280;13302;48.796;11.978;2023-02-17T06:36:27;97505.81;;;6.82;38.15
25350;BME280;13302;48.796;11.978;2023-02-17T06:39:14;97510.19;;;6.83;38.30
25350;BME280;13302;48.796;11.978;2023-02-17T06:42:01;97508.13;;;6.89;38.12
25350;BME280;13302;48.796;11.978;2023-02-17T06:44:48;97510.75;;;6.94;38.29
25350;BME280;13302;48.796;11.978;2023-02-17T06:47:35;97508.72;;;7.00;38.13
25350;BME280;13302;48.796;11.978;2023-02-17T06:50:22;97510.81;;;7.03;38.24
25350;BME280;13302;48.796;11.978;2023-02-17T06:53:10;97517.03;;;7.08;38.09
25350;BME280;13302;48.796;11.978;2023-02-17T06:55:57;97525.94;;;7.14;37.96
25350;BME280;13302;48.796;11.978;2023-02-17T06:58:44;97519.84;;;7.17;37.97
25350;BME280;13302;48.796;11.978;2023-02-17T07:01:31;97518.09;;;7.21;37.96
25350;BME280;13302;48.796;11.978;2023-02-17T07:04:18;97527.34;;;7.25;37.97
25350;BME280;13302;48.796;11.978;2023-02-17T07:07:06;97521.69;;;7.30;38.00
25350;BME280;13302;48.796;11.978;2023-02-17T07:09:53;97525.44;;;7.34;37.81
25350;BME280;13302;48.796;11.978;2023-02-17T07:12:40;97527.28;;;7.38;37.84
25350;BME280;13302;48.796;11.978;2023-02-17T07:15:27;97527.44;;;7.42;37.98
25350;BME280;13302;48.796;11.978;2023-02-17T07:18:14;97530.41;;;7.46;37.83
25350;BME280;13302;48.796;11.978;2023-02-17T07:21:01;97534.16;;;7.50;37.66
25350;BME280;13302;48.796;11.978;2023-02-17T07:23:48;97524.44;;;7.52;37.60
25350;BME280;13302;48.796;11.978;2023-02-17T07:26:36;97526.25;;;7.57;37.66
25350;BME280;13302;48.796;11.978;2023-02-17T07:29:23;97516.56;;;7.59;37.55
25350;BME280;13302;48.796;11.978;2023-02-17T07:32:10;97517.06;;;7.61;37.86
25350;BME280;13302;48.796;11.978;2023-02-17T07:34:57;97516.44;;;7.64;37.60
25350;BME280;13302;48.796;11.978;2023-02-17T07:37:44;97512.56;;;7.65;37.67
25350;BME280;13302;48.796;11.978;2023-02-17T07:40:31;97514.66;;;7.68;37.59
25350;BME280;13302;48.796;11.978;2023-02-17T07:43:18;97517.41;;;7.68;37.75
25350;BME280;13302;48.796;11.978;2023-02-17T07:46:05;97519.22;;;7.73;37.65
25350;BME280;13302;48.796;11.978;2023-02-17T07:48:55;97522.44;;;7.75;37.70
25350;BME280;13302;48.796;11.978;2023-02-17T07:51:42;97508.91;;;7.78;37.82
25350;BME280;13302;48.796;11.978;2023-02-17T07:54:29;97512.13;;;7.80;37.81
25350;BME280;13302;48.796;11.978;2023-02-17T07:57:16;97511.50;;;7.83;37.79
25350;BME280;13302;48.796;11.978;2023-02-17T08:00:04;97522.66;;;7.87;37.68
25350;BME280;13302;48.796;11.978;2023-02-17T08:02:58;97521.72;;;7.92;37.90
25350;BME280;13302;48.796;11.978;2023-02-17T08:05:45;97520.78;;;7.96;37.85
25350;BME280;13302;48.796;11.978;2023-02-17T08:08:34;97512.69;;;8.00;37.70
25350;BME280;13302;48.796;11.978;2023-02-17T08:11:41;97513.19;;;8.02;37.70
25350;BME280;13302;48.796;11.978;2023-02-17T08:14:47;97519.19;;;8.04;37.61
25350;BME280;13302;48.796;11.978;2023-02-17T08:17:34;97520.16;;;8.08;37.78
25350;BME280;13302;48.796;11.978;2023-02-17T08:20:21;97524.72;;;8.12;37.51
25350;BME280;13302;48.796;11.978;2023-02-17T08:23:08;97524.09;;;8.15;37.74
25350;BME280;13302;48.796;11.978;2023-02-17T08:25:56;97522.63;;;8.18;37.64
25350;BME280;13302;48.796;11.978;2023-02-17T08:28:44;97522.00;;;8.21;37.74
25350;BME280;13302;48.796;11.978;2023-02-17T08:31:33;97524.13;;;8.24;37.77
25350;BME280;13302;48.796;11.978;2023-02-17T08:34:20;97530.28;;;8.29;37.59
25350;BME280;13302;48.796;11.978;2023-02-17T08:37:08;97524.13;;;8.32;37.74
25350;BME280;13302;48.796;11.978;2023-02-17T08:39:56;97525.44;;;8.35;37.49
25350;BME280;13302;48.796;11.978;2023-02-17T08:42:44;97527.06;;;8.36;37.72
25350;BME280;13302;48.796;11.978;2023-02-17T08:45:31;97534.34;;;8.41;37.57
25350;BME280;13302;48.796;11.978;2023-02-17T08:48:18;97522.72;;;8.44;37.50
25350;BME280;13302;48.796;11.978;2023-02-17T08:51:06;97526.75;;;8.46;37.77
25350;BME280;13302;48.796;11.978;2023-02-17T08:53:56;97526.09;;;8.49;37.73
25350;BME280;13302;48.796;11.978;2023-02-17T08:56:44;97521.13;;;8.51;37.83
25350;BME280;13302;48.796;11.978;2023-02-17T08:59:31;97514.97;;;8.54;37.76
25350;BME280;13302;48.796;11.978;2023-02-17T09:02:18;97517.88;;;8.58;37.63
25350;BME280;13302;48.796;11.978;2023-02-17T09:05:05;97519.53;;;8.59;37.86
25350;BME280;13302;48.796;11.978;2023-02-17T09:07:52;97527.47;;;8.60;37.80
25350;BME280;13302;48.796;11.978;2023-02-17T09:10:39;97515.50;;;8.65;37.67
25350;BME280;13302;48.796;11.978;2023-02-17T09:13:26;97531.38;;;8.68;37.43
25350;BME280;13302;48.796;11.978;2023-02-17T09:16:14;97528.78;;;8.71;37.58
25350;BME280;13302;48.796;11.978;2023-02-17T09:19:01;97537.22;;;8.75;37.47
25350;BME280;13302;48.796;11.978;2023-02-17T09:21:48;97542.88;;;8.79;37.65
25350;BME280;13302;48.796;11.978;2023-02-17T09:24:36;97538.34;;;8.83;37.46
25350;BME280;13302;48.796;11.978;2023-02-17T09:27:24;97525.53;;;8.87;37.63
25350;BME280;13302;48.796;11.978;2023-02-17T09:30:12;97530.91;;;8.92;37.84
25350;BME280;13302;48.796;11.978;2023-02-17T09:33:00;97531.06;;;8.95;37.56
25350;BME280;13302;48.796;11.978;2023-02-17T09:35:47;97530.41;;;8.98;37.54
25350;BME280;13302;48.796;11.978;2023-02-17T09:38:36;97526.69;;;9.03;37.35
25350;BME280;13302;48.796;11.978;2023-02-17T09:44:28;97525.38;;;9.09;37.51
25350;BME280;13302;48.796;11.978;2023-02-17T09:47:21;97529.94;;;9.13;37.35
25350;BME280;13302;48.796;11.978;2023-02-17T09:50:16;97522.63;;;9.17;37.62
25350;BME280;13302;48.796;11.978;2023-02-17T09:53:11;97521.97;;;9.20;37.44
25350;BME280;13302;48.796;11.978;2023-02-17T09:56:03;97541.13;;;9.26;37.36
25350;BME280;13302;48.796;11.978;2023-02-17T09:58:54;97521.16;;;9.29;37.55
25350;BME280;13302;48.796;11.978;2023-02-17T10:01:45;97527.63;;;9.33;37.35
25350;BME280;13302;48.796;11.978;2023-02-17T10:04:36;97538.00;;;9.36;37.54
25350;BME280;13302;48.796;11.978;2023-02-17T10:07:35;97507.19;;;9.42;37.43
25350;BME280;13302;48.796;11.978;2023-02-17T10:10:30;97510.91;;;9.46;37.36
25350;BME280;13302;48.796;11.978;2023-02-17T10:13:22;97520.16;;;9.50;37.60
25350;BME280;13302;48.796;11.978;2023-02-17T10:16:19;97544.81;;;9.55;37.27
25350;BME280;13302;48.796;11.978;2023-02-17T10:19:15;97528.75;;;9.57;37.40
25350;BME280;13302;48.796;11.978;2023-02-17T10:22:11;97517.06;;;9.60;37.47
25350;BME280;13302;48.796;11.978;2023-02-17T10:25:00;97521.28;;;9.66;37.17
25350;BME280;13302;48.796;11.978;2023-02-17T10:28:07;97525.66;;;9.67;37.60
25350;BME280;13302;48.796;11.978;2023-02-17T10:31:02;97520.75;;;9.73;37.39
25350;BME280;13302;48.796;11.978;2023-02-17T10:34:15;97519.78;;;9.78;37.60
25350;BME280;13302;48.796;11.978;2023-02-17T10:37:27;97513.25;;;9.82;37.24
25350;BME280;13302;48.796;11.978;2023-02-17T10:40:20;97506.25;;;9.85;37.44
25350;BME280;13302;48.796;11.978;2023-02-17T10:43:08;97519.06;;;9.89;37.59
25350;BME280;13302;48.796;11.978;2023-02-17T10:46:04;97505.75;;;9.91;37.63
25350;BME280;13302;48.796;11.978;2023-02-17T10:48:54;97533.19;;;9.96;37.45
25350;BME280;13302;48.796;11.978;2023-02-17T10:51:42;97499.38;;;9.99;37.22
25350;BME280;13302;48.796;11.978;2023-02-17T10:54:36;97500.66;;;10.02;37.46
25350;BME280;13302;48.796;11.978;2023-02-17T10:57:27;97497.59;;;10.03;37.58
25350;BME280;13302;48.796;11.978;2023-02-17T11:00:18;97498.03;;;10.05;37.52
25350;BME280;13302;48.796;11.978;2023-02-17T11:03:17;97493.47;;;10.09;37.54
25350;BME280;13302;48.796;11.978;2023-02-17T11:06:14;97495.25;;;10.14;37.27
25350;BME280;13302;48.796;11.978;2023-02-17T11:09:05;97498.00;;;10.14;37.63
25350;BME280;13302;48.796;11.978;2023-02-17T11:12:02;97513.13;;;10.17;37.54
25350;BME280;13302;48.796;11.978;2023-02-17T11:14:53;97487.59;;;10.20;37.45
25350;BME280;13302;48.796;11.978;2023-02-17T11:17:40;97494.06;;;10.24;37.53
25350;BME280;13302;48.796;11.978;2023-02-17T11:20:32;97490.97;;;10.25;37.99
25350;BME280;13302;48.796;11.978;2023-02-17T11:23:23;97479.56;;;10.27;37.65
25350;BME280;13302;48.796;11.978;2023-02-17T11:26:17;97482.47;;;10.30;37.70
25350;BME280;13302;48.796;11.978;2023-02-17T11:29:20;97481.34;;;10.31;37.99
25350;BME280;13302;48.796;11.978;2023-02-17T11:32:10;97475.50;;;10.33;38.18
25350;BME280;13302;48.796;11.978;2023-02-17T11:34:58;97465.69;;;10.35;37.98
25350;BME280;13302;48.796;11.978;2023-02-17T11:37:49;97463.75;;;10.36;38.22
25350;BME280;13302;48.796;11.978;2023-02-17T11:40:36;97455.78;;;10.34;38.20
25350;BME280;13302;48.796;11.978;2023-02-17T11:43:24;97446.50;;;10.39;38.16
25350;BME280;13302;48.796;11.978;2023-02-17T11:46:31;97444.53;;;10.39;38.41
25350;BME280;13302;48.796;11.978;2023-02-17T11:49:31;97460.81;;;10.41;38.39
25350;BME280;13302;48.796;11.978;2023-02-17T11:52:47;97451.03;;;10.43;38.49
25350;BME280;13302;48.796;11.978;2023-02-17T11:55:45;97455.06;;;10.46;38.50
25350;BME280;13302;48.796;11.978;2023-02-17T12:02:12;97448.88;;;10.49;38.47
25350;BME280;13302;48.796;11.978;2023-02-17T12:08:51;97442.34;;;10.53;38.68
25350;BME280;13302;48.796;11.978;2023-02-17T12:11:54;97435.31;;;10.56;38.85
25350;BME280;13302;48.796;11.978;2023-02-17T12:20:56;97438.72;;;10.62;38.61
25350;BME280;13302;48.796;11.978;2023-02-17T12:27:05;97438.84;;;10.65;38.99
25350;BME280;13302;48.796;11.978;2023-02-17T12:30:16;97431.84;;;10.68;38.76
25350;BME280;13302;48.796;11.978;2023-02-17T12:36:14;97435.53;;;10.72;38.97
25350;BME280;13302;48.796;11.978;2023-02-17T12:39:23;97418.63;;;10.73;38.94
25350;BME280;13302;48.796;11.978;2023-02-17T12:42:36;97411.59;;;10.76;39.12
25350;BME280;13302;48.796;11.978;2023-02-17T12:45:34;97415.31;;;10.80;39.05
25350;BME280;13302;48.796;11.978;2023-02-17T12:51:38;97425.34;;;10.84;38.98
25350;BME280;13302;48.796;11.978;2023-02-17T12:54:51;97421.13;;;10.87;39.30
25350;BME280;13302;48.796;11.978;2023-02-17T12:57:50;97417.19;;;10.88;39.10
25350;BME280;13302;48.796;11.978;2023-02-17T13:00:45;97424.34;;;10.89;39.27
25350;BME280;13302;48.796;11.978;2023-02-17T13:03:35;97416.03;;;10.89;39.24
25350;BME280;13302;48.796;11.978;2023-02-17T13:06:26;97412.94;;;10.90;39.38
25350;BME280;13302;48.796;11.978;2023-02-17T13:15:43;97415.72;;;10.90;39.28
25350;BME280;13302;48.796;11.978;2023-02-17T13:18:33;97432.75;;;10.92;39.57
25350;BME280;13302;48.796;11.978;2023-02-17T13:24:15;97436.34;;;10.93;40.00
25350;BME280;13302;48.796;11.978;2023-02-17T13:27:31;97446.59;;;10.92;39.99
25350;BME280;13302;48.796;11.978;2023-02-17T13:36:12;97456.19;;;10.95;40.56
25350;BME280;13302;48.796;11.978;2023-02-17T13:42:39;97454.44;;;10.90;40.70
25350;BME280;13302;48.796;11.978;2023-02-17T13:45:36;97464.69;;;10.90;41.24
25350;BME280;13302;48.796;11.978;2023-02-17T13:48:28;97463.38;;;10.87;41.22
25350;BME280;13302;48.796;11.978;2023-02-17T13:51:25;97463.63;;;10.82;41.50
25350;BME280;13302;48.796;11.978;2023-02-17T13:54:14;97463.63;;;10.82;41.45
25350;BME280;13302;48.796;11.978;2023-02-17T13:57:05;97458.41;;;10.81;41.37
25350;BME280;13302;48.796;11.978;2023-02-17T14:00:04;97459.91;;;10.78;41.76
25350;BME280;13302;48.796;11.978;2023-02-17T14:03:10;97451.94;;;10.77;41.81
25350;BME280;13302;48.796;11.978;2023-02-17T14:05:59;97461.88;;;10.78;41.92
25350;BME280;13302;48.796;11.978;2023-02-17T14:08:46;97471.28;;;10.77;41.83
25350;BME280;13302;48.796;11.978;2023-02-17T14:11:34;97467.72;;;10.76;42.06
25350;BME280;13302;48.796;11.978;2023-02-17T14:14:36;97460.09;;;10.73;42.24
25350;BME280;13302;48.796;11.978;2023-02-17T14:17:31;97457.34;;;10.73;41.96
25350;BME280;13302;48.796;11.978;2023-02-17T14:20:35;97455.72;;;10.72;42.36
25350;BME280;13302;48.796;11.978;2023-02-17T14:23:22;97457.66;;;10.72;42.21
25350;BME280;13302;48.796;11.978;2023-02-17T14:26:12;97462.06;;;10.73;42.48
25350;BME280;13302;48.796;11.978;2023-02-17T14:29:03;97452.63;;;10.74;42.35
25350;BME280;13302;48.796;11.978;2023-02-17T14:31:51;97458.59;;;10.76;42.21
25350;BME280;13302;48.796;11.978;2023-02-17T14:34:39;97454.22;;;10.75;42.72
25350;BME280;13302;48.796;11.978;2023-02-17T14:37:26;97450.31;;;10.76;42.72
25350;BME280;13302;48.796;11.978;2023-02-17T14:40:20;97449.50;;;10.75;42.69
25350;BME280;13302;48.796;11.978;2023-02-17T14:43:09;97449.97;;;10.77;42.57
25350;BME280;13302;48.796;11.978;2023-02-17T14:45:56;97436.97;;;10.78;42.71
25350;BME280;13302;48.796;11.978;2023-02-17T14:48:43;97421.97;;;10.79;42.75
25350;BME280;13302;48.796;11.978;2023-02-17T14:51:35;97411.72;;;10.79;42.78
25350;BME280;13302;48.796;11.978;2023-02-17T14:54:22;97416.94;;;10.81;42.78
25350;BME280;13302;48.796;11.978;2023-02-17T14:57:13;97412.53;;;10.80;42.99
25350;BME280;13302;48.796;11.978;2023-02-17T15:00:01;97407.00;;;10.80;43.05
25350;BME280;13302;48.796;11.978;2023-02-17T15:02:48;97403.44;;;10.79;42.92
25350;BME280;13302;48.796;11.978;2023-02-17T15:05:37;97397.09;;;10.79;42.93
25350;BME280;13302;48.796;11.978;2023-02-17T15:08:33;97397.09;;;10.79;42.98
25350;BME280;13302;48.796;11.978;2023-02-17T15:11:32;97396.31;;;10.78;42.83
25350;BME280;13302;48.796;11.978;2023-02-17T15:14:23;97394.31;;;10.79;43.16
25350;BME280;13302;48.796;11.978;2023-02-17T15:17:10;97395.13;;;10.79;43.10
25350;BME280;13302;48.796;11.978;2023-02-17T15:19:57;97394.00;;;10.80;43.22
25350;BME280;13302;48.796;11.978;2023-02-17T15:22:44;97388.47;;;10.80;43.21
25350;BME280;13302;48.796;11.978;2023-02-17T15:25:32;97398.06;;;10.83;43.23
25350;BME280;13302;48.796;11.978;2023-02-17T15:28:20;97396.88;;;10.84;43.14
25350;BME280;13302;48.796;11.978;2023-02-17T15:31:10;97394.94;;;10.84;43.21
25350;BME280;13302;48.796;11.978;2023-02-17T15:33:59;97387.94;;;10.87;43.25
25350;BME280;13302;48.796;11.978;2023-02-17T15:36:46;97376.16;;;10.90;43.25
25350;BME280;13302;48.796;11.978;2023-02-17T15:39:33;97365.91;;;10.90;43.21
25350;BME280;13302;48.796;11.978;2023-02-17T15:42:20;97356.94;;;10.93;43.09
25350;BME280;13302;48.796;11.978;2023-02-17T15:45:11;97367.50;;;10.91;42.83
25350;BME280;13302;48.796;11.978;2023-02-17T15:48:03;97353.34;;;10.93;42.96
25350;BME280;13302;48.796;11.978;2023-02-17T15:50:52;97372.03;;;10.96;43.15
25350;BME280;13302;48.796;11.978;2023-02-17T15:53:40;97366.50;;;10.96;42.83
25350;BME280;13302;48.796;11.978;2023-02-17T15:56:30;97366.50;;;10.96;42.91